createdAt,value
2022-10-17T00:03:19.834Z,52.97
2022-10-17T00:07:23.150Z,50.13
2022-10-17T00:11:27.975Z,48.63
2022-10-17T00:15:33.136Z,47.67
2022-10-17T00:19:36.433Z,45.63
2022-10-17T00:23:39.720Z,47.37
2022-10-17T00:27:43.279Z,51.67
2022-10-17T00:31:47.948Z,46.07
2022-10-17T00:35:51.285Z,47.10
2022-10-17T00:39:55.293Z,48.90
2022-10-17T00:44:01.584Z,54.13
2022-10-17T00:48:10.625Z,42.93
2022-10-17T00:52:17.725Z,47.40
2022-10-17T00:56:22.462Z,45.80
2022-10-17T01:00:26.135Z,44.37
2022-10-17T01:04:30.900Z,45.67
2022-10-17T01:08:34.311Z,46.93
2022-10-17T01:12:52.481Z,41.83
2022-10-17T01:17:04.073Z,43.37
2022-10-17T01:21:34.743Z,47.57
2022-10-17T01:25:47.276Z,41.47
2022-10-17T01:30:05.206Z,40.27
2022-10-17T01:34:15.843Z,44.80
2022-10-17T01:38:24.448Z,47.43
2022-10-17T01:42:32.483Z,47.50
2022-10-17T01:46:39.044Z,47.80
2022-10-17T01:50:47.759Z,45.67
2022-10-17T01:54:54.077Z,44.83
2022-10-17T01:59:02.601Z,46.23
2022-10-17T02:03:10.733Z,43.57
2022-10-17T02:07:15.585Z,42.27
2022-10-17T02:11:21.589Z,50.73
2022-10-17T02:15:41.666Z,55.73
2022-10-17T02:19:56.327Z,43.60
2022-10-17T02:24:08.601Z,50.33
2022-10-17T02:28:21.350Z,52.37
2022-10-17T02:32:27.920Z,48.43
2022-10-17T02:36:36.128Z,45.50
2022-10-17T02:40:44.030Z,43.73
2022-10-17T02:44:48.473Z,51.07
2022-10-17T02:48:55.696Z,42.53
2022-10-17T02:53:05.908Z,54.23
2022-10-17T02:57:15.044Z,49.23
2022-10-17T03:01:19.944Z,41.70
2022-10-17T03:05:25.959Z,45.73
2022-10-17T03:09:30.179Z,43.90
2022-10-17T03:13:38.920Z,47.13
2022-10-17T03:17:43.293Z,46.97
2022-10-17T03:21:46.597Z,41.20
2022-10-17T03:25:52.255Z,53.70
2022-10-17T03:29:56.941Z,46.93
2022-10-17T03:34:00.237Z,51.17
2022-10-17T03:38:03.540Z,46.37
2022-10-17T03:42:06.834Z,44.90
2022-10-17T03:46:11.585Z,46.80
2022-10-17T03:50:15.179Z,35.77
2022-10-17T03:54:18.436Z,48.60
2022-10-17T03:58:22.914Z,46.07
2022-10-17T04:02:27.598Z,45.33
2022-10-17T04:06:30.948Z,43.83
2022-10-17T04:10:34.302Z,46.53
2022-10-17T04:14:38.950Z,52.10
2022-10-17T04:18:44.249Z,48.80
2022-10-17T04:22:47.519Z,51.10
2022-10-17T04:26:52.225Z,51.27
2022-10-17T04:31:02.904Z,46.40
2022-10-17T04:35:08.526Z,52.60
2022-10-17T04:43:15.126Z,51.00
2022-10-17T04:47:18.458Z,49.10
2022-10-17T04:51:25.896Z,57.83
2022-10-17T04:55:30.046Z,56.13
2022-10-17T04:59:33.352Z,54.33
2022-10-17T05:03:37.182Z,72.37
2022-10-17T05:07:42.926Z,58.03
2022-10-17T05:11:46.229Z,58.97
2022-10-17T05:15:50.110Z,56.70
2022-10-17T05:19:53.696Z,48.67
2022-10-17T05:23:58.770Z,54.77
2022-10-17T05:28:02.205Z,47.93
2022-10-17T05:32:06.167Z,53.53
2022-10-17T05:36:10.043Z,54.20
2022-10-17T05:40:15.618Z,51.37
2022-10-17T05:44:21.099Z,50.30
2022-10-17T05:48:25.470Z,50.47
2022-10-17T05:52:29.083Z,47.93
2022-10-17T05:56:33.986Z,45.00
2022-10-17T06:00:37.501Z,44.73
2022-10-17T06:04:45.623Z,43.73
2022-10-17T06:08:48.929Z,56.37
2022-10-17T06:12:53.618Z,44.50
2022-10-17T06:16:57.245Z,43.53
2022-10-17T06:21:04.971Z,43.90
2022-10-17T06:25:09.045Z,49.27
2022-10-17T06:29:13.962Z,50.17
2022-10-17T06:33:18.066Z,50.40
2022-10-17T06:37:21.365Z,41.47
2022-10-17T06:41:25.477Z,43.60
2022-10-17T06:45:31.065Z,42.60
2022-10-17T06:49:41.528Z,48.37
2022-10-17T06:53:45.169Z,46.33
2022-10-17T06:57:48.805Z,44.07
2022-10-17T07:01:53.751Z,41.80
2022-10-17T07:05:57.865Z,48.37
2022-10-17T07:10:01.274Z,45.80
2022-10-17T07:14:05.093Z,44.17
2022-10-17T07:18:09.822Z,42.00
2022-10-17T07:22:14.153Z,49.13
2022-10-17T07:26:19.861Z,54.47
2022-10-17T07:30:24.083Z,50.63
2022-10-17T07:34:31.626Z,53.80
2022-10-17T07:38:36.116Z,51.50
2022-10-17T07:46:42.930Z,47.93
2022-10-17T07:50:47.774Z,51.17
2022-10-17T07:54:51.225Z,45.80
2022-10-17T07:58:55.002Z,43.70
2022-10-17T08:02:58.307Z,43.03
2022-10-17T08:07:19.717Z,41.80
2022-10-17T08:11:25.478Z,44.60
2022-10-17T08:15:31.730Z,44.07
2022-10-17T08:19:35.566Z,33.40
2022-10-17T08:23:40.235Z,30.17
2022-10-17T08:27:43.540Z,31.33
2022-10-17T08:31:48.332Z,37.03
2022-10-17T08:35:53.251Z,29.70
2022-10-17T08:39:57.937Z,28.90
2022-10-17T08:44:12.446Z,27.83
2022-10-17T08:48:19.556Z,25.53
2022-10-17T08:52:31.179Z,28.97
2022-10-17T08:56:48.986Z,25.77
2022-10-17T09:01:02.158Z,24.23
2022-10-17T09:05:29.624Z,20.40
2022-10-17T09:09:41.060Z,18.20
2022-10-17T09:13:59.882Z,27.30
2022-10-17T09:18:15.883Z,19.20
2022-10-17T09:22:25.432Z,20.77
2022-10-17T09:26:29.590Z,23.27
2022-10-17T09:30:46.444Z,23.43
2022-10-17T09:34:50.108Z,24.30
2022-10-17T09:38:55.772Z,24.97
2022-10-17T09:42:59.939Z,21.00
2022-10-17T09:47:19.762Z,23.03
2022-10-17T09:51:26.110Z,23.03
2022-10-17T09:55:38.841Z,22.00
2022-10-17T09:59:43.992Z,21.83
2022-10-17T10:03:48.942Z,21.33
2022-10-17T10:08:04.401Z,23.13
2022-10-17T10:12:18.959Z,22.17
2022-10-17T10:16:25.530Z,21.23
2022-10-17T10:20:34.685Z,24.80
2022-10-17T10:24:37.977Z,18.73
2022-10-17T10:28:42.124Z,21.33
2022-10-17T10:32:49.600Z,19.73
2022-10-17T10:36:58.800Z,18.63
2022-10-17T10:41:07.524Z,20.90
2022-10-17T10:45:42.892Z,18.20
2022-10-17T10:49:41.948Z,18.87
2022-10-17T10:53:51.447Z,18.47
2022-10-17T10:57:57.946Z,23.30
2022-10-17T11:02:05.776Z,18.97
2022-10-17T11:06:15.722Z,20.03
2022-10-17T11:10:24.338Z,16.50
2022-10-17T11:14:39.632Z,18.80
2022-10-17T11:18:48.564Z,17.80
2022-10-17T11:22:57.810Z,18.97
2022-10-17T11:27:05.847Z,21.10
2022-10-17T11:31:13.984Z,17.70
2022-10-17T11:35:22.216Z,17.83
2022-10-17T11:39:35.104Z,17.10
2022-10-17T11:43:46.329Z,18.33
2022-10-17T11:47:54.361Z,18.73
2022-10-17T11:52:08.052Z,17.73
2022-10-17T11:56:12.899Z,18.27
2022-10-17T12:00:41.716Z,15.93
2022-10-17T12:04:55.956Z,16.30
2022-10-17T12:09:07.438Z,17.47
2022-10-17T12:14:00.071Z,17.73
2022-10-17T12:18:20.496Z,16.47
2022-10-17T12:22:27.558Z,15.57
2022-10-17T12:26:32.691Z,16.87
2022-10-17T12:30:39.299Z,16.93
2022-10-17T12:34:58.717Z,16.73
2022-10-17T12:39:32.760Z,17.40
2022-10-17T12:43:48.683Z,17.53
2022-10-17T12:47:52.001Z,19.07
2022-10-17T12:52:31.643Z,19.57
2022-10-17T12:56:39.861Z,17.20
2022-10-17T13:01:05.122Z,18.80
2022-10-17T13:05:17.870Z,19.90
2022-10-17T13:09:27.525Z,19.67
2022-10-17T13:13:40.463Z,19.83
2022-10-17T13:17:43.986Z,19.20
2022-10-17T13:21:52.272Z,20.93
2022-10-17T13:26:09.153Z,20.30
2022-10-17T13:30:32.435Z,19.70
2022-10-17T13:34:36.931Z,20.13
2022-10-17T13:38:42.642Z,21.90
2022-10-17T13:42:46.901Z,21.43
2022-10-17T13:46:52.461Z,21.17
2022-10-17T13:51:02.442Z,22.93
2022-10-17T13:55:14.283Z,21.97
2022-10-17T13:59:24.772Z,21.50
2022-10-17T14:03:42.579Z,22.03
2022-10-17T14:12:20.123Z,19.83
2022-10-17T14:16:27.165Z,19.60
2022-10-17T14:21:31.806Z,20.50
2022-10-17T14:25:00.269Z,21.03
2022-10-17T14:29:19.440Z,23.20
2022-10-17T14:33:28.332Z,24.53
2022-10-17T14:37:41.331Z,26.10
2022-10-17T14:41:48.488Z,27.27
2022-10-17T14:45:53.206Z,23.60
2022-10-17T14:50:08.439Z,24.30
2022-10-17T14:54:23.786Z,26.10
2022-10-17T14:58:29.087Z,26.83
2022-10-17T15:02:35.813Z,28.37
2022-10-17T15:06:40.714Z,31.60
2022-10-17T15:10:51.469Z,29.07
2022-10-17T15:14:56.400Z,30.00
2022-10-17T15:18:59.748Z,31.93
2022-10-17T15:23:04.132Z,31.43
2022-10-17T15:27:18.456Z,26.77
2022-10-17T15:31:23.449Z,33.93
2022-10-17T15:35:27.587Z,30.43
2022-10-17T15:39:31.101Z,24.93
2022-10-17T15:43:36.248Z,28.37
2022-10-17T15:47:40.175Z,33.87
2022-10-17T15:51:43.535Z,35.00
2022-10-17T15:55:50.343Z,31.60
2022-10-17T15:59:57.252Z,31.87
2022-10-17T16:04:00.867Z,31.83
2022-10-17T16:08:17.485Z,31.90
2022-10-17T16:12:28.305Z,34.87
2022-10-17T16:16:33.813Z,34.00
2022-10-17T16:20:37.884Z,30.60
2022-10-17T16:24:41.204Z,35.70
2022-10-17T16:28:47.222Z,40.93
2022-10-17T16:32:52.631Z,40.47
2022-10-17T16:36:56.333Z,37.40
2022-10-17T16:41:00.323Z,34.90
2022-10-17T16:45:03.671Z,34.50
2022-10-17T16:49:09.016Z,33.37
2022-10-17T16:53:13.534Z,32.13
2022-10-17T16:57:17.060Z,35.37
2022-10-17T17:01:23.223Z,37.60
2022-10-17T17:05:28.434Z,38.53
2022-10-17T17:09:32.489Z,36.10
2022-10-17T17:13:39.380Z,37.30
2022-10-17T17:17:51.253Z,38.63
2022-10-17T17:21:57.982Z,35.43
2022-10-17T17:26:03.781Z,38.57
2022-10-17T17:30:09.031Z,47.00
2022-10-17T17:34:15.655Z,38.37
2022-10-17T17:38:23.862Z,38.83
2022-10-17T17:42:28.666Z,38.67
2022-10-17T17:46:33.715Z,39.23
2022-10-17T17:50:41.240Z,48.30
2022-10-17T17:54:48.267Z,41.67
2022-10-17T17:59:06.932Z,38.10
2022-10-17T18:03:24.380Z,37.87
2022-10-17T18:07:31.630Z,44.37
2022-10-17T18:11:46.486Z,45.13
2022-10-17T18:16:08.552Z,39.63
2022-10-17T18:20:25.786Z,43.10
2022-10-17T18:24:36.100Z,45.70
2022-10-17T18:28:47.036Z,50.93
2022-10-17T18:32:58.482Z,58.20
2022-10-17T18:37:04.958Z,51.03
2022-10-17T18:41:17.413Z,47.63
2022-10-17T18:45:29.547Z,53.50
2022-10-17T18:49:38.577Z,44.60
2022-10-17T18:54:24.679Z,47.60
2022-10-17T18:58:35.604Z,51.17
2022-10-17T19:02:44.202Z,44.60
2022-10-17T19:06:54.397Z,46.73
2022-10-17T19:11:02.022Z,43.37
2022-10-17T19:15:17.235Z,46.70
2022-10-17T19:19:29.540Z,43.73
2022-10-17T19:23:39.471Z,48.27
2022-10-17T19:27:46.238Z,47.00
2022-10-17T19:31:53.659Z,43.37
2022-10-17T19:36:07.911Z,46.40
2022-10-17T19:40:21.249Z,43.83
2022-10-17T19:44:31.851Z,47.87
2022-10-17T19:48:37.992Z,42.20
2022-10-17T19:52:44.182Z,51.17
2022-10-17T19:56:48.628Z,52.83
2022-10-17T20:00:58.672Z,45.67
2022-10-17T20:05:18.826Z,49.67
2022-10-17T20:09:25.621Z,48.27
2022-10-17T20:13:29.291Z,49.90
2022-10-17T20:21:37.531Z,36.70
2022-10-17T20:25:42.299Z,46.80
2022-10-17T20:29:46.651Z,38.37
2022-10-17T20:33:49.914Z,42.60
2022-10-17T20:37:53.301Z,39.93
2022-10-17T20:41:57.924Z,44.60
2022-10-17T20:46:09.685Z,45.60
2022-10-17T20:50:19.297Z,48.00
2022-10-17T20:54:22.991Z,42.40
2022-10-17T20:58:27.801Z,43.47
2022-10-17T21:02:31.235Z,44.00
2022-10-17T21:06:36.772Z,43.00
2022-10-17T21:10:40.480Z,49.20
2022-10-17T21:14:45.147Z,42.90
2022-10-17T21:18:49.473Z,46.33
2022-10-17T21:22:52.887Z,44.33
2022-10-17T21:26:57.654Z,46.23
2022-10-17T21:31:11.709Z,50.57
2022-10-17T21:35:14.963Z,45.70
2022-10-17T21:39:18.935Z,45.23
2022-10-17T21:43:22.202Z,38.10
2022-10-17T21:47:27.750Z,41.37
2022-10-17T21:51:31.101Z,39.67
2022-10-17T21:55:37.050Z,45.83
2022-10-17T21:59:40.309Z,38.30
2022-10-17T22:03:47.035Z,49.47
2022-10-17T22:07:50.345Z,39.53
2022-10-17T22:11:55.258Z,41.27
2022-10-17T22:16:00.789Z,45.93
2022-10-17T22:20:06.246Z,40.20
2022-10-17T22:24:13.512Z,43.07
2022-10-17T22:28:16.795Z,41.27
2022-10-17T22:32:22.450Z,47.73
2022-10-17T22:36:27.464Z,41.97
2022-10-17T22:40:30.778Z,42.27
2022-10-17T22:44:34.114Z,34.30
2022-10-17T22:48:38.482Z,39.90
2022-10-17T22:52:43.106Z,43.77
2022-10-17T22:56:46.391Z,42.20
2022-10-17T23:00:50.062Z,40.50
2022-10-17T23:04:53.356Z,43.33
2022-10-17T23:08:58.004Z,47.60
2022-10-17T23:13:01.338Z,37.50
2022-10-17T23:17:05.198Z,39.13
2022-10-17T23:21:09.969Z,47.50
2022-10-17T23:25:14.635Z,42.27
2022-10-17T23:29:17.901Z,43.53
2022-10-17T23:33:24.141Z,34.10
2022-10-17T23:37:37.197Z,43.33
2022-10-17T23:41:41.875Z,37.30
2022-10-17T23:45:45.323Z,45.40
2022-10-17T23:49:48.612Z,43.53
2022-10-17T23:53:51.861Z,43.70
2022-10-17T23:57:56.574Z,41.90
